createdAt,value
2019-05-06T00:00:13.961Z,54.20
2019-05-06T00:02:43.577Z,54.21
2019-05-06T00:05:14.282Z,54.32
2019-05-06T00:07:44.535Z,54.22
2019-05-06T00:10:25.112Z,54.38
2019-05-06T00:12:54.502Z,54.29
2019-05-06T00:15:23.525Z,54.37
2019-05-06T00:17:53.924Z,54.13
2019-05-06T00:20:24.336Z,54.22
2019-05-06T00:22:54.669Z,54.30
2019-05-06T00:25:40.909Z,54.37
2019-05-06T00:28:24.423Z,54.19
2019-05-06T00:31:08.603Z,54.13
2019-05-06T00:33:24.802Z,54.03
2019-05-06T00:35:53.867Z,54.09
2019-05-06T00:38:24.478Z,54.13
2019-05-06T00:40:59.889Z,53.94
2019-05-06T00:43:28.356Z,53.98
2019-05-06T00:45:56.732Z,53.96
2019-05-06T00:48:25.176Z,53.82
2019-05-06T00:50:53.737Z,53.91
2019-05-06T00:53:23.980Z,54.07
2019-05-06T00:55:53.773Z,54.01
2019-05-06T00:58:23.905Z,54.15
2019-05-06T01:00:53.884Z,54.56
2019-05-06T01:03:23.917Z,54.34
2019-05-06T01:05:54.173Z,54.42
2019-05-06T01:08:24.063Z,54.46
2019-05-06T01:10:54.436Z,54.47
2019-05-06T01:13:27.252Z,54.63
2019-05-06T01:15:55.704Z,54.73
2019-05-06T01:18:24.528Z,55.00
2019-05-06T01:20:54.850Z,54.63
2019-05-06T01:23:23.642Z,54.81
2019-05-06T01:25:52.091Z,54.67
2019-05-06T01:28:20.863Z,54.60
2019-05-06T01:30:49.269Z,54.76
2019-05-06T01:33:17.923Z,54.27
2019-05-06T01:35:46.638Z,54.44
2019-05-06T01:38:25.637Z,54.44
2019-05-06T01:41:13.640Z,54.22
2019-05-06T01:43:43.948Z,54.18
2019-05-06T01:46:14.016Z,54.17
2019-05-06T01:48:48.489Z,54.07
2019-05-06T01:51:18.503Z,54.44
2019-05-06T01:53:47.357Z,54.46
2019-05-06T01:56:15.898Z,54.55
2019-05-06T01:58:44.398Z,54.72
2019-05-06T02:01:14.767Z,54.79
2019-05-06T02:03:44.359Z,55.08
2019-05-06T02:06:14.074Z,55.17
2019-05-06T02:08:44.818Z,55.34
2019-05-06T02:11:14.895Z,55.50
2019-05-06T02:13:44.271Z,55.29
2019-05-06T02:16:14.804Z,55.48
2019-05-06T02:18:44.881Z,55.62
2019-05-06T02:21:30.473Z,56.02
2019-05-06T02:24:13.515Z,56.04
2019-05-06T02:26:43.625Z,56.08
2019-05-06T02:29:29.099Z,56.18
2019-05-06T02:32:24.835Z,56.57
2019-05-06T02:34:47.431Z,56.45
2019-05-06T02:37:34.954Z,56.98
2019-05-06T02:40:05.433Z,57.06
2019-05-06T02:42:34.095Z,57.44
2019-05-06T02:45:03.983Z,57.37
2019-05-06T02:47:42.731Z,57.75
2019-05-06T02:50:13.239Z,57.92
2019-05-06T02:52:44.128Z,58.28
2019-05-06T02:55:13.106Z,58.60
2019-05-06T02:57:44.012Z,58.53
2019-05-06T03:00:16.630Z,58.81
2019-05-06T03:02:48.119Z,59.00
2019-05-06T03:05:15.178Z,59.12
2019-05-06T03:07:43.836Z,59.34
2019-05-06T03:10:16.328Z,59.74
2019-05-06T03:12:44.841Z,59.87
2019-05-06T03:15:16.598Z,60.34
2019-05-06T03:17:43.771Z,60.37
2019-05-06T03:20:15.699Z,60.55
2019-05-06T03:22:54.717Z,61.22
2019-05-06T03:25:25.102Z,61.55
2019-05-06T03:27:53.490Z,61.64
2019-05-06T03:30:25.652Z,61.83
2019-05-06T03:33:27.672Z,62.25
2019-05-06T03:35:40.431Z,62.84
2019-05-06T03:37:53.428Z,62.80
2019-05-06T03:40:23.063Z,62.69
2019-05-06T03:42:53.968Z,62.84
2019-05-06T03:45:26.674Z,62.85
2019-05-06T03:47:56.698Z,63.77
2019-05-06T03:50:25.093Z,63.42
2019-05-06T03:52:56.460Z,63.59
2019-05-06T03:55:24.035Z,63.69
2019-05-06T03:57:54.059Z,64.23
2019-05-06T04:00:23.751Z,64.44
2019-05-06T04:02:53.568Z,64.68
2019-05-06T04:05:23.781Z,64.98
2019-05-06T04:07:53.884Z,65.30
2019-05-06T04:10:22.992Z,65.69
2019-05-06T04:12:53.431Z,65.47
2019-05-06T04:15:22.977Z,65.69
2019-05-06T04:17:54.359Z,65.53
2019-05-06T04:20:40.046Z,65.38
2019-05-06T04:23:16.617Z,65.12
2019-05-06T04:26:03.599Z,65.27
2019-05-06T04:28:34.308Z,65.34
2019-05-06T04:31:03.077Z,65.11
2019-05-06T04:33:33.187Z,65.33
2019-05-06T04:36:03.584Z,65.12
2019-05-06T04:38:33.693Z,65.48
2019-05-06T04:41:02.914Z,65.52
2019-05-06T04:43:33.626Z,65.87
2019-05-06T04:46:03.177Z,66.32
2019-05-06T04:48:33.028Z,66.37
2019-05-06T04:51:03.324Z,66.74
2019-05-06T04:53:33.694Z,66.69
2019-05-06T04:56:03.861Z,66.72
2019-05-06T04:58:33.539Z,66.83
2019-05-06T05:01:04.033Z,66.43
2019-05-06T05:03:33.686Z,66.21
2019-05-06T05:06:05.613Z,66.28
2019-05-06T05:08:39.293Z,66.57
2019-05-06T05:11:12.801Z,66.51
2019-05-06T05:13:53.241Z,66.80
2019-05-06T05:16:33.145Z,66.74
2019-05-06T05:19:06.123Z,66.79
2019-05-06T05:21:34.594Z,66.50
2019-05-06T05:24:03.040Z,66.56
2019-05-06T05:26:32.260Z,65.90
2019-05-06T05:29:02.857Z,65.80
2019-05-06T05:31:33.121Z,65.54
2019-05-06T05:34:02.168Z,65.25
2019-05-06T05:36:32.757Z,65.13
2019-05-06T05:39:03.224Z,64.72
2019-05-06T05:41:33.124Z,64.56
2019-05-06T05:44:06.869Z,64.21
2019-05-06T05:46:35.334Z,64.51
2019-05-06T05:49:08.164Z,64.11
2019-05-06T05:51:36.691Z,64.04
2019-05-06T05:54:05.131Z,64.26
2019-05-06T05:56:33.610Z,65.70
2019-05-06T05:59:03.335Z,66.05
2019-05-06T06:01:32.778Z,65.64
2019-05-06T06:04:03.157Z,65.70
2019-05-06T06:06:33.139Z,65.64
2019-05-06T06:09:03.050Z,65.66
2019-05-06T06:11:39.671Z,65.13
2019-05-06T06:14:26.318Z,64.39
2019-05-06T06:17:13.013Z,63.36
2019-05-06T06:19:54.338Z,61.76
2019-05-06T06:22:24.538Z,61.62
2019-05-06T06:24:53.454Z,60.10
2019-05-06T06:27:22.404Z,60.24
2019-05-06T06:29:52.759Z,58.45
2019-05-06T06:32:23.332Z,56.29
2019-05-06T06:37:43.125Z,52.90
2019-05-06T06:40:13.494Z,52.40
2019-05-06T06:42:42.729Z,52.39
2019-05-06T06:45:12.279Z,50.42
2019-05-06T06:47:42.543Z,49.21
2019-05-06T06:50:12.552Z,48.09
2019-05-06T06:52:42.178Z,46.60
2019-05-06T06:55:12.948Z,47.67
2019-05-06T06:57:52.380Z,48.57
2019-05-06T07:00:22.444Z,47.82
2019-05-06T07:02:52.610Z,46.38
2019-05-06T07:05:28.289Z,45.48
2019-05-06T07:07:55.768Z,45.35
2019-05-06T07:10:43.023Z,47.47
2019-05-06T07:13:13.285Z,49.08
2019-05-06T07:15:42.638Z,48.64
2019-05-06T07:18:13.526Z,50.02
2019-05-06T07:20:43.414Z,51.17
2019-05-06T07:23:24.828Z,50.37
2019-05-06T07:25:54.436Z,49.92
2019-05-06T07:28:23.924Z,49.62
2019-05-06T07:30:53.017Z,48.46
2019-05-06T07:33:22.915Z,46.28
2019-05-06T07:35:53.077Z,46.87
2019-05-06T07:38:23.051Z,46.57
2019-05-06T07:41:04.635Z,46.63
2019-05-06T07:43:42.047Z,46.22
2019-05-06T07:46:23.535Z,47.45
2019-05-06T07:48:52.024Z,48.71
2019-05-06T07:51:20.373Z,50.28
2019-05-06T07:53:48.783Z,49.49
2019-05-06T07:56:17.195Z,50.09
2019-05-06T07:58:45.756Z,48.47
2019-05-06T08:01:14.297Z,49.14
2019-05-06T08:03:43.028Z,48.75
2019-05-06T08:06:13.176Z,48.83
2019-05-06T08:08:43.289Z,50.42
2019-05-06T08:11:12.441Z,48.38
2019-05-06T08:13:43.186Z,45.45
2019-05-06T08:16:13.079Z,46.72
2019-05-06T08:18:42.521Z,45.79
2019-05-06T08:21:16.115Z,44.36
2019-05-06T08:23:46.250Z,44.51
2019-05-06T08:26:17.576Z,42.02
2019-05-06T08:28:45.145Z,42.00
2019-05-06T08:31:14.182Z,41.50
2019-05-06T08:33:43.215Z,42.59
2019-05-06T08:36:15.019Z,41.35
2019-05-06T08:38:56.149Z,40.94
2019-05-06T08:41:25.582Z,38.72
2019-05-06T08:43:54.053Z,38.68
2019-05-06T08:46:23.464Z,41.00
2019-05-06T08:48:52.755Z,44.33
2019-05-06T08:51:25.964Z,45.63
2019-05-06T08:53:58.949Z,45.78
2019-05-06T08:56:27.351Z,46.30
2019-05-06T08:58:56.125Z,47.00
2019-05-06T09:01:42.662Z,46.69
2019-05-06T09:04:13.670Z,47.33
2019-05-06T09:06:43.159Z,47.24
2019-05-06T09:09:13.052Z,46.29
2019-05-06T09:11:43.166Z,42.73
2019-05-06T09:14:13.700Z,42.76
2019-05-06T09:16:43.770Z,42.89
2019-05-06T09:19:12.924Z,44.53
2019-05-06T09:21:45.712Z,43.88
2019-05-06T09:24:12.865Z,43.12
2019-05-06T09:26:52.359Z,40.69
2019-05-06T09:29:28.208Z,41.66
2019-05-06T09:32:04.337Z,42.85
2019-05-06T09:34:34.785Z,42.61
2019-05-06T09:37:16.486Z,43.13
2019-05-06T09:39:46.093Z,43.69
2019-05-06T09:42:15.038Z,41.76
2019-05-06T09:44:45.146Z,41.05
2019-05-06T09:47:18.591Z,38.31
2019-05-06T09:49:48.794Z,39.96
2019-05-06T09:52:17.607Z,40.09
2019-05-06T09:55:04.307Z,40.51
2019-05-06T09:57:52.215Z,41.29
2019-05-06T10:00:23.591Z,40.59
2019-05-06T10:02:52.693Z,38.88
2019-05-06T10:05:21.443Z,37.93
2019-05-06T10:07:49.988Z,36.20
2019-05-06T10:10:18.432Z,35.09
2019-05-06T10:12:47.126Z,35.09
2019-05-06T10:15:15.999Z,38.48
2019-05-06T10:17:44.447Z,39.98
2019-05-06T10:20:12.902Z,40.30
2019-05-06T10:22:43.036Z,40.45
2019-05-06T10:25:13.382Z,40.28
2019-05-06T10:27:43.507Z,40.41
2019-05-06T10:30:13.651Z,42.88
2019-05-06T10:32:49.349Z,43.45
2019-05-06T10:35:19.055Z,43.80
2019-05-06T10:38:03.040Z,43.88
2019-05-06T10:40:59.680Z,43.83
2019-05-06T10:43:43.140Z,43.61
2019-05-06T10:46:13.195Z,42.77
2019-05-06T10:48:42.411Z,42.33
2019-05-06T10:51:14.234Z,40.18
2019-05-06T10:53:42.807Z,37.09
2019-05-06T10:56:28.011Z,37.06
2019-05-06T10:58:58.177Z,36.68
2019-05-06T11:01:28.262Z,38.79
2019-05-06T11:03:57.357Z,38.21
2019-05-06T11:06:25.731Z,37.27
2019-05-06T11:08:54.197Z,38.06
2019-05-06T11:11:32.617Z,38.57
2019-05-06T11:13:53.253Z,36.67
2019-05-06T11:16:23.648Z,35.03
2019-05-06T11:18:53.498Z,33.36
2019-05-06T11:21:22.641Z,34.43
2019-05-06T11:23:52.719Z,34.36
2019-05-06T11:26:23.566Z,35.25
2019-05-06T11:28:56.206Z,36.77
2019-05-06T11:31:34.774Z,37.84
2019-05-06T11:34:23.241Z,38.64
2019-05-06T11:36:53.703Z,39.36
2019-05-06T11:39:23.357Z,39.53
2019-05-06T11:42:06.271Z,39.55
2019-05-06T11:44:24.003Z,37.38
2019-05-06T11:46:52.527Z,35.44
2019-05-06T11:49:23.274Z,34.56
2019-05-06T11:51:51.526Z,30.06
2019-05-06T11:54:23.556Z,26.51
2019-05-06T11:56:55.117Z,23.69
2019-05-06T11:59:22.617Z,24.51
2019-05-06T12:01:53.592Z,27.65
2019-05-06T12:04:23.021Z,25.39
2019-05-06T12:06:52.603Z,22.59
2019-05-06T12:09:22.384Z,27.32
2019-05-06T12:11:52.886Z,27.90
2019-05-06T12:14:22.688Z,28.99
2019-05-06T12:16:54.845Z,31.82
2019-05-06T12:19:22.528Z,32.59
2019-05-06T12:21:51.252Z,33.29
2019-05-06T12:24:19.795Z,35.64
2019-05-06T12:26:48.174Z,34.56
2019-05-06T12:29:16.557Z,34.33
2019-05-06T12:31:46.581Z,34.08
2019-05-06T12:34:14.960Z,34.21
2019-05-06T12:36:43.695Z,31.74
2019-05-06T12:39:18.477Z,32.14
2019-05-06T12:41:57.418Z,31.40
2019-05-06T12:44:25.783Z,29.74
2019-05-06T12:46:59.482Z,29.58
2019-05-06T12:49:26.075Z,30.28
2019-05-06T12:51:54.524Z,32.70
2019-05-06T12:54:22.997Z,35.45
2019-05-06T12:56:52.795Z,36.58
2019-05-06T12:59:22.316Z,35.86
2019-05-06T13:01:53.768Z,38.41
2019-05-06T13:04:44.519Z,38.57
2019-05-06T13:06:52.171Z,38.65
2019-05-06T13:09:22.544Z,39.48
2019-05-06T13:11:52.376Z,39.34
2019-05-06T13:14:22.363Z,38.73
2019-05-06T13:16:53.216Z,37.24
2019-05-06T13:19:22.891Z,34.44
2019-05-06T13:21:51.473Z,29.02
2019-05-06T13:24:19.953Z,25.73
2019-05-06T13:26:49.305Z,23.92
2019-05-06T13:29:22.679Z,24.28
2019-05-06T13:31:53.039Z,24.35
2019-05-06T13:34:23.455Z,23.98
2019-05-06T13:36:53.270Z,26.75
2019-05-06T13:39:23.713Z,24.85
2019-05-06T13:41:52.875Z,23.61
2019-05-06T13:44:22.747Z,22.37
2019-05-06T13:46:53.268Z,22.55
2019-05-06T13:49:26.298Z,23.75
2019-05-06T13:52:04.388Z,25.26
2019-05-06T13:54:32.786Z,29.87
2019-05-06T13:57:02.960Z,31.58
2019-05-06T13:59:34.762Z,29.99
2019-05-06T14:02:07.528Z,29.41
2019-05-06T14:04:36.327Z,31.01
2019-05-06T14:07:07.453Z,33.07
2019-05-06T14:09:39.918Z,32.29
2019-05-06T14:12:05.201Z,35.06
2019-05-06T14:14:33.722Z,33.18
2019-05-06T14:17:02.558Z,30.24
2019-05-06T14:19:33.220Z,28.92
2019-05-06T14:22:03.033Z,28.61
2019-05-06T14:24:32.780Z,26.19
2019-05-06T14:27:08.801Z,26.99
2019-05-06T14:29:44.620Z,26.06
2019-05-06T14:32:14.888Z,26.63
2019-05-06T14:34:43.609Z,28.07
2019-05-06T14:37:12.208Z,30.12
2019-05-06T14:39:53.290Z,31.57
2019-05-06T14:42:12.890Z,33.10
2019-05-06T14:44:43.102Z,35.15
2019-05-06T14:47:13.154Z,36.39
2019-05-06T14:49:43.155Z,36.47
2019-05-06T14:52:13.245Z,37.78
2019-05-06T14:54:49.472Z,38.32
2019-05-06T14:57:18.823Z,38.80
2019-05-06T14:59:50.835Z,39.71
2019-05-06T15:02:19.511Z,39.85
2019-05-06T15:04:47.940Z,40.20
2019-05-06T15:07:16.452Z,40.28
2019-05-06T15:09:55.879Z,40.05
2019-05-06T15:12:15.025Z,40.54
2019-05-06T15:14:43.466Z,40.36
2019-05-06T15:17:14.228Z,40.20
2019-05-06T15:19:42.899Z,39.93
2019-05-06T15:22:13.008Z,40.47
2019-05-06T15:24:42.656Z,41.00
2019-05-06T15:27:11.962Z,41.16
2019-05-06T15:29:42.303Z,42.19
2019-05-06T15:32:24.050Z,42.63
2019-05-06T15:35:09.503Z,43.33
2019-05-06T15:37:42.691Z,43.34
2019-05-06T15:40:12.167Z,43.53
2019-05-06T15:42:42.489Z,44.14
2019-05-06T15:45:12.601Z,44.69
2019-05-06T15:47:42.626Z,45.31
2019-05-06T15:50:12.767Z,45.19
2019-05-06T15:52:43.490Z,46.64
2019-05-06T15:55:12.229Z,48.09
2019-05-06T15:57:43.280Z,49.29
2019-05-06T16:00:13.041Z,50.31
2019-05-06T16:02:42.031Z,50.46
2019-05-06T16:05:13.903Z,49.07
2019-05-06T16:07:43.156Z,50.22
2019-05-06T16:10:13.293Z,49.75
2019-05-06T16:12:41.833Z,50.07
2019-05-06T16:15:12.985Z,49.67
2019-05-06T16:17:42.663Z,49.91
2019-05-06T16:20:12.986Z,49.93
2019-05-06T16:22:44.544Z,49.67
2019-05-06T16:25:14.533Z,49.84
2019-05-06T16:27:44.185Z,49.64
2019-05-06T16:30:14.992Z,49.13
2019-05-06T16:32:44.424Z,48.23
2019-05-06T16:35:14.365Z,48.15
2019-05-06T16:37:42.897Z,48.58
2019-05-06T16:40:12.440Z,49.30
2019-05-06T16:42:42.587Z,50.48
2019-05-06T16:45:12.706Z,50.74
2019-05-06T16:47:44.706Z,51.39
2019-05-06T16:50:19.044Z,51.75
2019-05-06T16:52:47.705Z,52.28
2019-05-06T16:55:24.518Z,52.69
2019-05-06T16:57:54.858Z,53.86
2019-05-06T17:00:25.328Z,54.21
2019-05-06T17:03:04.508Z,54.98
2019-05-06T17:05:34.678Z,54.36
2019-05-06T17:08:03.219Z,54.76
2019-05-06T17:10:32.677Z,55.43
2019-05-06T17:13:02.933Z,55.53
2019-05-06T17:15:32.608Z,57.33
2019-05-06T17:18:03.168Z,56.83
2019-05-06T17:20:32.679Z,55.98
2019-05-06T17:23:02.937Z,56.87
2019-05-06T17:25:32.913Z,56.36
2019-05-06T17:28:03.487Z,56.47
2019-05-06T17:30:43.075Z,56.08
2019-05-06T17:33:29.637Z,55.65
2019-05-06T17:35:58.203Z,55.80
2019-05-06T17:38:28.262Z,55.07
2019-05-06T17:40:56.720Z,55.34
2019-05-06T17:43:25.173Z,55.19
2019-05-06T17:46:01.882Z,55.27
2019-05-06T17:48:30.016Z,56.14
2019-05-06T17:51:16.615Z,55.94
2019-05-06T17:53:52.062Z,55.96
2019-05-06T17:56:22.085Z,56.76
2019-05-06T17:58:50.386Z,56.68
2019-05-06T18:01:35.734Z,57.02
2019-05-06T18:04:04.692Z,57.01
2019-05-06T18:06:33.583Z,57.23
2019-05-06T18:09:02.639Z,57.07
2019-05-06T18:11:33.272Z,56.91
2019-05-06T18:14:03.779Z,56.62
2019-05-06T18:16:33.142Z,57.41
2019-05-06T18:19:03.082Z,57.21
2019-05-06T18:21:31.865Z,57.70
2019-05-06T18:24:00.226Z,57.45
2019-05-06T18:26:29.168Z,57.99
2019-05-06T18:28:58.541Z,57.45
2019-05-06T18:31:27.128Z,57.37
2019-05-06T18:33:55.500Z,57.78
2019-05-06T18:36:24.046Z,58.10
2019-05-06T18:38:52.760Z,58.34
2019-05-06T18:41:23.392Z,58.28
2019-05-06T18:43:53.407Z,57.49
2019-05-06T18:46:21.596Z,57.32
2019-05-06T18:48:52.355Z,57.71
2019-05-06T18:51:22.375Z,58.18
2019-05-06T18:53:52.399Z,57.64
2019-05-06T18:56:22.378Z,57.43
2019-05-06T18:58:53.071Z,57.25
2019-05-06T19:01:23.197Z,57.54
2019-05-06T19:04:03.389Z,58.04
2019-05-06T19:06:32.698Z,58.88
2019-05-06T19:09:19.265Z,59.41
2019-05-06T19:11:48.128Z,60.63
2019-05-06T19:14:16.551Z,60.77
2019-05-06T19:16:49.749Z,60.63
2019-05-06T19:19:15.108Z,60.17
2019-05-06T19:21:43.807Z,60.10
2019-05-06T19:24:12.401Z,60.78
2019-05-06T19:26:42.790Z,61.00
2019-05-06T19:29:12.249Z,61.08
2019-05-06T19:31:44.765Z,61.61
2019-05-06T19:34:12.956Z,60.96
2019-05-06T19:36:42.215Z,61.27
2019-05-06T19:39:12.661Z,61.09
2019-05-06T19:41:41.019Z,61.39
2019-05-06T19:44:09.531Z,61.86
2019-05-06T19:46:37.994Z,63.02
2019-05-06T19:49:06.490Z,63.03
2019-05-06T19:51:35.320Z,62.79
2019-05-06T19:54:03.759Z,62.86
2019-05-06T19:56:32.243Z,62.59
2019-05-06T19:59:02.086Z,63.53
2019-05-06T20:01:32.351Z,63.73
2019-05-06T20:04:02.582Z,63.68
2019-05-06T20:06:41.754Z,63.79
2019-05-06T20:09:27.514Z,64.10
2019-05-06T20:11:57.659Z,64.24
2019-05-06T20:14:26.377Z,63.87
2019-05-06T20:16:54.730Z,64.20
2019-05-06T20:19:30.716Z,64.48
2019-05-06T20:21:53.287Z,65.02
2019-05-06T20:24:22.493Z,65.23
2019-05-06T20:26:52.726Z,65.71
2019-05-06T20:29:22.402Z,65.83
2019-05-06T20:31:53.319Z,65.13
2019-05-06T20:34:22.381Z,64.67
2019-05-06T20:36:52.863Z,64.97
2019-05-06T20:39:23.050Z,65.40
2019-05-06T20:41:51.419Z,65.05
2019-05-06T20:44:19.766Z,65.10
2019-05-06T20:46:48.527Z,64.97
2019-05-06T20:49:16.924Z,65.23
2019-05-06T20:51:45.360Z,64.84
2019-05-06T20:54:13.750Z,64.74
2019-05-06T20:56:42.294Z,64.39
2019-05-06T20:59:12.122Z,64.22
2019-05-06T21:01:42.500Z,64.95
2019-05-06T21:04:13.121Z,65.26
2019-05-06T21:06:42.599Z,64.97
2019-05-06T21:09:12.441Z,64.72
2019-05-06T21:11:42.156Z,65.21
2019-05-06T21:14:13.039Z,64.94
2019-05-06T21:16:42.268Z,64.73
2019-05-06T21:19:12.622Z,64.74
2019-05-06T21:21:42.987Z,65.23
2019-05-06T21:24:13.027Z,65.57
2019-05-06T21:26:42.875Z,65.71
2019-05-06T21:29:12.763Z,66.24
2019-05-06T21:31:42.245Z,66.61
2019-05-06T21:34:12.869Z,66.24
2019-05-06T21:36:42.255Z,66.39
2019-05-06T21:39:12.919Z,67.04
2019-05-06T21:41:42.745Z,67.14
2019-05-06T21:44:13.254Z,66.99
2019-05-06T21:46:42.966Z,67.49
2019-05-06T21:49:12.252Z,67.25
2019-05-06T21:51:42.564Z,67.18
2019-05-06T21:54:12.551Z,67.19
2019-05-06T21:56:42.442Z,67.64
2019-05-06T21:59:12.878Z,67.55
2019-05-06T22:01:42.909Z,67.73
2019-05-06T22:04:12.839Z,68.38
2019-05-06T22:06:42.766Z,68.65
2019-05-06T22:09:12.585Z,68.59
2019-05-06T22:11:42.330Z,69.29
2019-05-06T22:14:12.249Z,68.71
2019-05-06T22:16:41.007Z,68.86
2019-05-06T22:19:11.909Z,69.42
2019-05-06T22:21:42.577Z,69.11
2019-05-06T22:24:12.218Z,69.46
2019-05-06T22:26:43.202Z,69.10
2019-05-06T22:29:12.773Z,69.21
2019-05-06T22:31:42.314Z,69.05
2019-05-06T22:34:10.837Z,69.07
2019-05-06T22:36:39.182Z,69.12
2019-05-06T22:39:07.725Z,69.41
2019-05-06T22:41:36.123Z,69.21
2019-05-06T22:44:13.105Z,69.44
2019-05-06T22:46:34.739Z,69.22
2019-05-06T22:49:03.757Z,69.04
2019-05-06T22:51:32.529Z,68.86
2019-05-06T22:54:03.182Z,68.96
2019-05-06T22:56:32.506Z,68.98
2019-05-06T22:59:03.346Z,69.53
2019-05-06T23:01:49.659Z,69.74
2019-05-06T23:04:21.701Z,69.64
2019-05-06T23:06:50.177Z,69.46
2019-05-06T23:09:18.953Z,69.52
2019-05-06T23:11:47.551Z,69.18
2019-05-06T23:14:28.071Z,68.87
2019-05-06T23:16:46.454Z,69.36
2019-05-06T23:19:15.244Z,69.54
2019-05-06T23:21:43.722Z,69.77
2019-05-06T23:24:13.158Z,69.53
2019-05-06T23:26:41.699Z,69.73
2019-05-06T23:29:12.772Z,70.03
2019-05-06T23:31:42.463Z,69.76
2019-05-06T23:34:12.535Z,69.88
2019-05-06T23:36:59.215Z,69.90
2019-05-06T23:40:05.809Z,70.18
2019-05-06T23:43:12.622Z,69.80
2019-05-06T23:46:17.519Z,69.81
2019-05-06T23:49:22.729Z,70.05
2019-05-06T23:52:28.083Z,70.02
2019-05-06T23:55:32.909Z,70.74
2019-05-06T23:58:00.278Z,70.78
